Terminal Aerodrome Forecast
Issued by NWS

Home | Current Version | Previous Version | Text Only | Print | Product List | Glossary On
Versions: 1 2 3 4 5 6 7 8 9 10 11 12 13 14 15 16 17 18
875
FTUS43 KDTX 020520
TAFMBS
TAF
KMBS 020520Z 0206/0306 06010G20KT P6SM SCT040 OVC070
     FM020700 04010KT P6SM OVC045
     FM020800 02008KT P6SM OVC012
     FM021400 03015KT P6SM SCT015 BKN025
     FM021800 02009KT P6SM BKN050=

USA.gov is the U.S. government's official web portal to all federal, state and local government web resources and services.